Terminal Aerodrome Forecast
Issued by NWS Indianapolis, IN

Home | Current Version | Previous Version | Text Only | Print | Product List | Glossary On
Versions: 1 2 3 4 5 6 7 8 9 10 11 12 13 14 15 16 17 18 19 20 21 22 23 24 25 26 27 28 29 30
673
FTUS43 KIND 230243 AAB
TAFIND
TAF AMD
KIND 230243Z 2303/2406 02010KT P6SM BKN090
     FM230500 01010KT P6SM OVC015
     FM230700 36010KT 5SM BR OVC008
     FM230900 35011G19KT 4SM BR OVC004
     FM231400 34012G21KT 4SM BR OVC008
     FM231900 33011G20KT P6SM OVC008
     FM240000 33010KT P6SM OVC010=

USA.gov is the U.S. government's official web portal to all federal, state and local government web resources and services.